createdAt,value
2022-09-13T00:01:43.461Z,99.90
2022-09-13T00:05:45.490Z,99.90
2022-09-13T00:09:47.178Z,99.90
2022-09-13T00:13:49.502Z,99.90
2022-09-13T00:17:51.154Z,99.90
2022-09-13T00:21:52.796Z,99.90
2022-09-13T00:26:03.925Z,99.90
2022-09-13T00:30:07.752Z,99.90
2022-09-13T00:34:09.393Z,99.90
2022-09-13T00:38:11.056Z,99.90
2022-09-13T00:42:13.839Z,99.90
2022-09-13T00:46:44.160Z,99.90
2022-09-13T00:50:58.146Z,99.90
2022-09-13T00:55:09.474Z,99.90
2022-09-13T00:59:18.365Z,99.90
2022-09-13T01:03:22.572Z,99.70
2022-09-13T01:07:24.462Z,99.90
2022-09-13T01:11:35.713Z,99.90
2022-09-13T01:15:37.727Z,99.90
2022-09-13T01:19:39.536Z,99.90
2022-09-13T01:24:07.405Z,99.90
2022-09-13T01:28:37.853Z,99.90
2022-09-13T01:33:06.853Z,99.90
2022-09-13T01:37:39.389Z,99.90
2022-09-13T01:42:01.568Z,99.90
2022-09-13T01:46:16.721Z,99.90
2022-09-13T01:50:42.532Z,99.90
2022-09-13T01:55:31.358Z,99.90
2022-09-13T01:59:53.840Z,99.90
2022-09-13T02:04:01.617Z,99.90
2022-09-13T02:08:09.889Z,99.90
2022-09-13T02:12:18.482Z,99.90
2022-09-13T02:16:31.188Z,99.90
2022-09-13T02:20:36.958Z,99.90
2022-09-13T02:24:45.222Z,99.90
2022-09-13T02:28:55.568Z,99.90
2022-09-13T02:33:12.499Z,99.90
2022-09-13T02:37:14.533Z,99.90
2022-09-13T02:41:23.518Z,99.90
2022-09-13T02:45:32.285Z,99.90
2022-09-13T02:49:43.450Z,99.90
2022-09-13T02:54:00.877Z,99.90
2022-09-13T02:58:43.794Z,99.90
2022-09-13T03:02:46.920Z,99.90
2022-09-13T03:06:50.277Z,99.90
2022-09-13T03:11:08.187Z,99.90
2022-09-13T03:15:24.408Z,99.90
2022-09-13T03:19:29.097Z,99.90
2022-09-13T03:23:55.211Z,99.90
2022-09-13T03:28:29.045Z,99.90
2022-09-13T03:33:00.614Z,99.90
2022-09-13T03:37:43.872Z,99.90
2022-09-13T03:41:52.308Z,99.90
2022-09-13T03:45:58.885Z,99.90
2022-09-13T03:50:01.790Z,99.90
2022-09-13T03:54:08.843Z,99.90
2022-09-13T03:58:13.686Z,99.90
2022-09-13T04:02:17.568Z,99.90
2022-09-13T04:06:19.386Z,99.90
2022-09-13T04:10:21.864Z,99.90
2022-09-13T04:14:26.394Z,99.90
2022-09-13T04:18:28.780Z,99.90
2022-09-13T04:22:31.446Z,99.90
2022-09-13T04:26:34.870Z,99.90
2022-09-13T04:30:40.702Z,99.90
2022-09-13T04:34:44.724Z,99.90
2022-09-13T04:38:48.170Z,99.90
2022-09-13T04:42:49.861Z,99.80
2022-09-13T04:46:52.227Z,99.90
2022-09-13T04:50:53.862Z,99.70
2022-09-13T04:54:55.791Z,99.50
2022-09-13T04:58:57.522Z,99.50
2022-09-13T05:02:59.340Z,99.90
2022-09-13T05:07:00.948Z,99.90
2022-09-13T05:11:03.642Z,99.90
2022-09-13T05:15:07.012Z,99.90
2022-09-13T05:19:11.454Z,99.90
2022-09-13T05:23:13.101Z,99.90
2022-09-13T05:27:14.793Z,99.90
2022-09-13T05:31:22.858Z,99.80
2022-09-13T05:35:25.136Z,99.90
2022-09-13T05:39:33.847Z,99.90
2022-09-13T05:43:45.677Z,99.90
2022-09-13T05:47:50.917Z,99.90
2022-09-13T05:51:52.600Z,99.90
2022-09-13T05:55:54.239Z,99.90
2022-09-13T05:59:55.890Z,99.90
2022-09-13T06:03:58.848Z,99.90
2022-09-13T06:08:00.549Z,99.90
2022-09-13T06:12:02.633Z,99.90
2022-09-13T06:16:08.241Z,99.90
2022-09-13T06:20:10.690Z,99.90
2022-09-13T06:24:12.329Z,99.90
2022-09-13T06:28:13.973Z,99.90
2022-09-13T06:32:15.634Z,99.90
2022-09-13T06:36:19.911Z,99.90
2022-09-13T06:40:25.204Z,99.90
2022-09-13T06:44:27.101Z,99.90
2022-09-13T06:48:31.507Z,99.90
2022-09-13T06:52:33.325Z,99.90
2022-09-13T06:56:40.335Z,99.90
2022-09-13T07:00:42.057Z,99.90
2022-09-13T07:04:43.841Z,99.90
2022-09-13T07:08:46.867Z,99.90
2022-09-13T07:12:48.538Z,99.90
2022-09-13T07:16:51.799Z,99.90
2022-09-13T07:20:58.186Z,99.90
2022-09-13T07:25:00.969Z,99.90
2022-09-13T07:29:06.679Z,99.90
2022-09-13T07:33:08.505Z,99.90
2022-09-13T07:37:10.227Z,99.90
2022-09-13T07:41:14.530Z,99.90
2022-09-13T07:45:16.320Z,99.90
2022-09-13T07:49:19.378Z,99.90
2022-09-13T07:53:20.993Z,99.90
2022-09-13T07:57:22.694Z,99.90
2022-09-13T08:01:26.438Z,99.90
2022-09-13T08:05:28.266Z,99.90
2022-09-13T08:09:29.967Z,99.90
2022-09-13T08:13:34.827Z,99.90
2022-09-13T08:17:36.510Z,99.90
2022-09-13T08:21:40.496Z,99.90
2022-09-13T08:25:42.318Z,99.90
2022-09-13T08:29:44.144Z,99.90
2022-09-13T08:33:48.371Z,99.90
2022-09-13T08:37:50.150Z,99.90
2022-09-13T08:42:21.381Z,99.90
2022-09-13T08:46:35.617Z,99.90
2022-09-13T08:50:39.318Z,99.90
2022-09-13T08:54:41.134Z,99.90
2022-09-13T08:59:03.920Z,99.90
2022-09-13T09:03:14.558Z,99.90
2022-09-13T09:07:22.682Z,99.90
2022-09-13T09:11:54.225Z,99.90
2022-09-13T09:16:01.394Z,99.90
2022-09-13T09:20:27.615Z,99.90
2022-09-13T09:24:36.334Z,99.90
2022-09-13T09:28:37.993Z,99.90
2022-09-13T09:32:58.445Z,99.90
2022-09-13T09:37:19.894Z,99.90
2022-09-13T09:41:32.584Z,99.90
2022-09-13T09:45:36.394Z,99.90
2022-09-13T09:50:14.472Z,99.90
2022-09-13T09:54:16.782Z,99.90
2022-09-13T09:58:35.958Z,99.90
2022-09-13T10:02:44.539Z,98.40
2022-09-13T10:06:47.069Z,97.40
2022-09-13T10:10:57.692Z,98.10
2022-09-13T10:15:32.718Z,98.00
2022-09-13T10:19:34.385Z,97.70
2022-09-13T10:23:38.886Z,96.80
2022-09-13T10:27:47.785Z,96.50
2022-09-13T10:31:53.657Z,95.80
2022-09-13T10:36:00.432Z,96.10
2022-09-13T10:40:22.580Z,95.80
2022-09-13T10:44:33.942Z,95.70
2022-09-13T10:48:47.639Z,96.10
2022-09-13T10:52:52.914Z,96.60
2022-09-13T10:56:54.745Z,96.10
2022-09-13T11:01:18.584Z,95.80
2022-09-13T11:05:41.848Z,95.40
2022-09-13T11:09:49.614Z,95.80
2022-09-13T11:14:23.048Z,95.10
2022-09-13T11:18:57.242Z,95.40
2022-09-13T11:23:13.372Z,95.90
2022-09-13T11:27:44.943Z,94.70
2022-09-13T11:32:14.342Z,96.20
2022-09-13T11:36:35.972Z,95.20
2022-09-13T11:41:03.836Z,94.50
2022-09-13T11:45:28.680Z,94.10
2022-09-13T11:49:58.877Z,93.40
2022-09-13T11:54:14.817Z,93.80
2022-09-13T11:58:28.786Z,93.80
2022-09-13T12:02:40.362Z,94.40
2022-09-13T12:06:50.834Z,94.20
2022-09-13T12:10:58.162Z,93.40
2022-09-13T12:15:08.411Z,92.60
2022-09-13T12:19:25.164Z,91.70
2022-09-13T12:23:46.353Z,92.10
2022-09-13T12:27:59.413Z,92.00
2022-09-13T12:32:05.197Z,92.30
2022-09-13T12:36:36.629Z,90.70
2022-09-13T12:40:42.785Z,87.60
2022-09-13T12:45:26.532Z,86.60
2022-09-13T12:49:46.577Z,82.00
2022-09-13T12:54:00.368Z,80.10
2022-09-13T12:58:34.425Z,80.80
2022-09-13T13:02:44.647Z,82.50
2022-09-13T13:07:02.945Z,83.80
2022-09-13T13:11:14.693Z,83.20
2022-09-13T13:15:18.165Z,84.10
2022-09-13T13:19:31.201Z,84.70
2022-09-13T13:23:39.288Z,84.80
2022-09-13T13:27:48.041Z,85.60
2022-09-13T13:32:07.333Z,86.00
2022-09-13T13:36:22.224Z,85.50
2022-09-13T13:40:26.609Z,84.70
2022-09-13T13:44:28.293Z,83.60
2022-09-13T13:48:41.531Z,82.90
2022-09-13T13:52:55.905Z,85.30
2022-09-13T13:56:57.849Z,86.20
2022-09-13T14:01:02.442Z,86.10
2022-09-13T14:05:32.453Z,86.20
2022-09-13T14:09:53.717Z,84.30
2022-09-13T14:14:32.649Z,86.40
2022-09-13T14:19:07.137Z,84.70
2022-09-13T14:23:27.217Z,84.40
2022-09-13T14:27:37.505Z,85.60
2022-09-13T14:31:39.467Z,85.80
2022-09-13T14:35:41.679Z,86.40
2022-09-13T14:40:00.399Z,83.60
2022-09-13T14:44:28.180Z,86.30
2022-09-13T14:48:42.262Z,87.60
2022-09-13T14:53:18.001Z,87.20
2022-09-13T14:57:34.363Z,88.40
2022-09-13T15:01:36.338Z,88.50
2022-09-13T15:05:39.330Z,90.00
2022-09-13T15:09:41.095Z,89.20
2022-09-13T15:13:43.781Z,89.40
2022-09-13T15:17:53.954Z,89.20
2022-09-13T15:22:26.438Z,89.80
2022-09-13T15:26:28.178Z,89.20
2022-09-13T15:30:32.245Z,89.10
2022-09-13T15:34:34.116Z,89.50
2022-09-13T15:38:36.250Z,88.90
2022-09-13T15:42:39.370Z,89.80
2022-09-13T15:46:48.699Z,90.30
2022-09-13T15:51:05.673Z,90.70
2022-09-13T15:55:11.913Z,90.70
2022-09-13T15:59:14.905Z,90.90
2022-09-13T16:03:17.857Z,90.40
2022-09-13T16:07:20.157Z,90.90
2022-09-13T16:11:21.831Z,91.60
2022-09-13T16:15:23.679Z,92.70
2022-09-13T16:19:25.575Z,94.60
2022-09-13T16:23:27.233Z,96.00
2022-09-13T16:27:33.702Z,96.70
2022-09-13T16:31:36.002Z,96.50
2022-09-13T16:35:37.921Z,97.30
2022-09-13T16:39:39.606Z,97.70
2022-09-13T16:43:41.353Z,97.60
2022-09-13T16:47:44.349Z,97.80
2022-09-13T16:51:46.082Z,98.10
2022-09-13T16:55:47.881Z,97.70
2022-09-13T16:59:49.765Z,97.70
2022-09-13T17:03:54.820Z,97.90
2022-09-13T17:07:56.781Z,99.00
2022-09-13T17:11:58.618Z,98.90
2022-09-13T17:16:00.578Z,99.00
2022-09-13T17:20:07.766Z,99.10
2022-09-13T17:24:13.352Z,99.10
2022-09-13T17:28:16.958Z,99.30
2022-09-13T17:32:18.622Z,99.90
2022-09-13T17:36:21.109Z,99.90
2022-09-13T17:40:22.863Z,99.90
2022-09-13T17:44:24.946Z,99.90
2022-09-13T17:48:26.649Z,99.90
2022-09-13T17:52:31.466Z,99.90
2022-09-13T17:56:39.016Z,99.90
2022-09-13T18:00:40.768Z,99.90
2022-09-13T18:04:42.400Z,99.90
2022-09-13T18:08:44.074Z,99.90
2022-09-13T18:12:45.724Z,99.90
2022-09-13T18:16:49.326Z,99.90
2022-09-13T18:20:51.093Z,99.90
2022-09-13T18:24:52.765Z,99.90
2022-09-13T18:28:56.705Z,99.90
2022-09-13T18:32:58.413Z,99.90
2022-09-13T18:37:00.098Z,99.90
2022-09-13T18:41:11.470Z,99.90
2022-09-13T18:45:13.175Z,99.90
2022-09-13T18:49:15.224Z,99.90
2022-09-13T18:53:16.980Z,99.90
2022-09-13T18:57:18.881Z,99.90
2022-09-13T19:01:26.603Z,99.90
2022-09-13T19:05:28.637Z,99.90
2022-09-13T19:09:30.315Z,99.90
2022-09-13T19:13:34.010Z,99.90
2022-09-13T19:17:35.672Z,99.90
2022-09-13T19:21:37.379Z,99.90
2022-09-13T19:25:39.037Z,99.90
2022-09-13T19:29:40.666Z,99.90
2022-09-13T19:33:44.198Z,99.90
2022-09-13T19:37:45.890Z,99.90
2022-09-13T19:41:47.586Z,99.90
2022-09-13T19:46:02.577Z,99.90
2022-09-13T19:50:04.734Z,99.90
2022-09-13T19:54:07.779Z,99.90
2022-09-13T19:58:09.538Z,99.90
2022-09-13T20:02:11.330Z,99.90
2022-09-13T20:06:14.010Z,99.90
2022-09-13T20:10:15.735Z,99.90
2022-09-13T20:14:19.350Z,99.90
2022-09-13T20:18:22.168Z,99.90
2022-09-13T20:22:23.825Z,99.90
2022-09-13T20:26:26.736Z,99.90
2022-09-13T20:30:28.483Z,99.90
2022-09-13T20:34:30.238Z,99.90
2022-09-13T20:38:32.228Z,99.90
2022-09-13T20:42:34.266Z,99.90
2022-09-13T20:46:36.093Z,99.90
2022-09-13T20:50:39.311Z,99.90
2022-09-13T20:54:41.058Z,99.90
2022-09-13T20:58:44.591Z,99.90
2022-09-13T21:02:46.551Z,99.90
2022-09-13T21:07:09.827Z,99.90
2022-09-13T21:11:17.078Z,99.90
2022-09-13T21:15:19.933Z,99.90
2022-09-13T21:19:21.554Z,99.90
2022-09-13T21:23:23.237Z,99.90
2022-09-13T21:27:25.009Z,99.90
2022-09-13T21:31:32.777Z,99.90
2022-09-13T21:35:40.643Z,99.90
2022-09-13T21:39:43.690Z,99.90
2022-09-13T21:43:45.820Z,99.90
2022-09-13T21:47:49.087Z,99.90
2022-09-13T21:51:52.892Z,99.90
2022-09-13T21:55:54.534Z,99.90
2022-09-13T21:59:56.218Z,99.90
2022-09-13T22:03:59.047Z,99.90
2022-09-13T22:08:00.838Z,99.90
2022-09-13T22:12:02.705Z,99.90
2022-09-13T22:16:05.672Z,99.90
2022-09-13T22:20:07.837Z,99.90
2022-09-13T22:24:14.642Z,99.90
2022-09-13T22:28:16.315Z,99.90
2022-09-13T22:32:22.559Z,99.90
2022-09-13T22:36:25.521Z,99.90
2022-09-13T22:40:27.602Z,99.90
2022-09-13T22:44:29.302Z,99.90
2022-09-13T22:48:31.258Z,99.90
2022-09-13T22:52:32.919Z,99.90
2022-09-13T22:56:35.964Z,99.90
2022-09-13T23:00:37.746Z,99.90
2022-09-13T23:04:39.421Z,99.90
2022-09-13T23:08:42.292Z,99.90
2022-09-13T23:12:45.625Z,99.90
2022-09-13T23:16:50.355Z,99.90
2022-09-13T23:20:59.073Z,99.90
2022-09-13T23:25:00.702Z,99.90
2022-09-13T23:29:04.181Z,99.90
2022-09-13T23:33:08.217Z,99.90
2022-09-13T23:37:09.894Z,99.90
2022-09-13T23:41:11.885Z,99.90
2022-09-13T23:45:13.626Z,99.90
2022-09-13T23:49:15.740Z,99.90
2022-09-13T23:53:17.410Z,99.90
2022-09-13T23:57:20.258Z,99.90
